sensor_id;sensor_type;location;lat;lon;timestamp;P1;durP1;ratioP1;P2;durP2;ratioP2
19861;SDS011;10093;48.148;8.542;2023-12-29T00:00:54;8.73;;;5.85;;
19861;SDS011;10093;48.148;8.542;2023-12-29T00:03:20;8.40;;;5.53;;
19861;SDS011;10093;48.148;8.542;2023-12-29T00:05:46;10.63;;;5.80;;
19861;SDS011;10093;48.148;8.542;2023-12-29T00:08:11;8.40;;;5.88;;
19861;SDS011;10093;48.148;8.542;2023-12-29T00:10:37;7.05;;;5.30;;
19861;SDS011;10093;48.148;8.542;2023-12-29T00:13:02;8.55;;;5.60;;
19861;SDS011;10093;48.148;8.542;2023-12-29T00:15:28;6.82;;;5.20;;
19861;SDS011;10093;48.148;8.542;2023-12-29T00:17:54;7.65;;;5.05;;
19861;SDS011;10093;48.148;8.542;2023-12-29T00:20:19;8.23;;;5.45;;
19861;SDS011;10093;48.148;8.542;2023-12-29T00:22:45;7.88;;;5.55;;
19861;SDS011;10093;48.148;8.542;2023-12-29T00:25:10;6.68;;;5.13;;
19861;SDS011;10093;48.148;8.542;2023-12-29T00:27:36;7.10;;;4.97;;
19861;SDS011;10093;48.148;8.542;2023-12-29T00:30:02;7.40;;;5.30;;
19861;SDS011;10093;48.148;8.542;2023-12-29T00:32:27;6.10;;;5.05;;
19861;SDS011;10093;48.148;8.542;2023-12-29T00:34:53;7.30;;;4.47;;
19861;SDS011;10093;48.148;8.542;2023-12-29T00:37:19;8.20;;;5.15;;
19861;SDS011;10093;48.148;8.542;2023-12-29T00:39:44;6.75;;;4.72;;
19861;SDS011;10093;48.148;8.542;2023-12-29T00:42:10;6.80;;;4.80;;
19861;SDS011;10093;48.148;8.542;2023-12-29T00:44:35;7.40;;;4.80;;
19861;SDS011;10093;48.148;8.542;2023-12-29T00:47:01;9.45;;;4.90;;
19861;SDS011;10093;48.148;8.542;2023-12-29T00:49:27;8.65;;;5.20;;
19861;SDS011;10093;48.148;8.542;2023-12-29T00:51:53;7.97;;;4.55;;
19861;SDS011;10093;48.148;8.542;2023-12-29T00:54:18;6.60;;;4.80;;
19861;SDS011;10093;48.148;8.542;2023-12-29T00:56:50;6.55;;;4.28;;
19861;SDS011;10093;48.148;8.542;2023-12-29T00:59:17;6.05;;;4.60;;
19861;SDS011;10093;48.148;8.542;2023-12-29T01:01:47;6.72;;;4.82;;
19861;SDS011;10093;48.148;8.542;2023-12-29T01:04:13;6.10;;;4.60;;
19861;SDS011;10093;48.148;8.542;2023-12-29T01:06:38;6.85;;;4.50;;
19861;SDS011;10093;48.148;8.542;2023-12-29T01:09:05;5.82;;;4.40;;
19861;SDS011;10093;48.148;8.542;2023-12-29T01:11:33;7.50;;;4.60;;
19861;SDS011;10093;48.148;8.542;2023-12-29T01:13:59;7.93;;;4.80;;
19861;SDS011;10093;48.148;8.542;2023-12-29T01:16:24;6.00;;;4.47;;
19861;SDS011;10093;48.148;8.542;2023-12-29T01:18:50;10.27;;;5.60;;
19861;SDS011;10093;48.148;8.542;2023-12-29T01:21:15;8.52;;;6.15;;
19861;SDS011;10093;48.148;8.542;2023-12-29T01:23:41;8.05;;;5.93;;
19861;SDS011;10093;48.148;8.542;2023-12-29T01:26:07;8.48;;;5.55;;
19861;SDS011;10093;48.148;8.542;2023-12-29T01:28:32;7.70;;;6.22;;
19861;SDS011;10093;48.148;8.542;2023-12-29T01:30:58;9.23;;;6.00;;
19861;SDS011;10093;48.148;8.542;2023-12-29T01:33:23;7.43;;;5.20;;
19861;SDS011;10093;48.148;8.542;2023-12-29T01:35:49;8.00;;;6.00;;
19861;SDS011;10093;48.148;8.542;2023-12-29T01:38:14;7.50;;;5.78;;
19861;SDS011;10093;48.148;8.542;2023-12-29T01:40:46;7.72;;;5.65;;
19861;SDS011;10093;48.148;8.542;2023-12-29T01:43:12;6.82;;;5.68;;
19861;SDS011;10093;48.148;8.542;2023-12-29T01:45:38;9.85;;;6.10;;
19861;SDS011;10093;48.148;8.542;2023-12-29T01:48:03;8.50;;;5.68;;
19861;SDS011;10093;48.148;8.542;2023-12-29T01:50:30;8.20;;;5.40;;
19861;SDS011;10093;48.148;8.542;2023-12-29T01:52:56;7.43;;;5.15;;
19861;SDS011;10093;48.148;8.542;2023-12-29T01:55:23;8.68;;;5.68;;
19861;SDS011;10093;48.148;8.542;2023-12-29T01:57:50;10.40;;;6.25;;
19861;SDS011;10093;48.148;8.542;2023-12-29T02:00:17;8.70;;;5.68;;
19861;SDS011;10093;48.148;8.542;2023-12-29T02:02:43;10.02;;;6.63;;
19861;SDS011;10093;48.148;8.542;2023-12-29T02:05:12;10.68;;;6.82;;
19861;SDS011;10093;48.148;8.542;2023-12-29T02:07:40;13.02;;;7.57;;
19861;SDS011;10093;48.148;8.542;2023-12-29T02:10:07;9.73;;;6.80;;
19861;SDS011;10093;48.148;8.542;2023-12-29T02:12:36;12.13;;;7.30;;
19861;SDS011;10093;48.148;8.542;2023-12-29T02:15:03;11.30;;;7.65;;
19861;SDS011;10093;48.148;8.542;2023-12-29T02:17:52;12.57;;;6.85;;
19861;SDS011;10093;48.148;8.542;2023-12-29T02:20:21;10.52;;;6.60;;
19861;SDS011;10093;48.148;8.542;2023-12-29T02:22:47;11.88;;;7.00;;
19861;SDS011;10093;48.148;8.542;2023-12-29T02:25:13;8.20;;;6.05;;
19861;SDS011;10093;48.148;8.542;2023-12-29T02:32:57;7.25;;;5.53;;
19861;SDS011;10093;48.148;8.542;2023-12-29T02:35:26;9.27;;;5.30;;
19861;SDS011;10093;48.148;8.542;2023-12-29T02:37:53;5.68;;;4.22;;
19861;SDS011;10093;48.148;8.542;2023-12-29T02:40:20;5.82;;;4.60;;
19861;SDS011;10093;48.148;8.542;2023-12-29T02:42:49;5.60;;;4.00;;
19861;SDS011;10093;48.148;8.542;2023-12-29T02:45:15;6.65;;;4.20;;
19861;SDS011;10093;48.148;8.542;2023-12-29T02:47:41;6.07;;;4.13;;
19861;SDS011;10093;48.148;8.542;2023-12-29T02:50:08;5.07;;;3.33;;
19861;SDS011;10093;48.148;8.542;2023-12-29T02:52:34;6.05;;;3.25;;
19861;SDS011;10093;48.148;8.542;2023-12-29T02:55:00;5.90;;;3.15;;
19861;SDS011;10093;48.148;8.542;2023-12-29T02:57:25;4.60;;;2.90;;
19861;SDS011;10093;48.148;8.542;2023-12-29T02:59:51;3.10;;;2.80;;
19861;SDS011;10093;48.148;8.542;2023-12-29T03:02:16;4.05;;;3.00;;
19861;SDS011;10093;48.148;8.542;2023-12-29T03:04:42;3.20;;;2.72;;
19861;SDS011;10093;48.148;8.542;2023-12-29T03:07:08;3.70;;;2.80;;
19861;SDS011;10093;48.148;8.542;2023-12-29T03:09:34;3.05;;;2.22;;
19861;SDS011;10093;48.148;8.542;2023-12-29T03:12:00;3.38;;;2.25;;
19861;SDS011;10093;48.148;8.542;2023-12-29T03:14:25;2.70;;;2.50;;
19861;SDS011;10093;48.148;8.542;2023-12-29T03:16:51;2.50;;;2.30;;
19861;SDS011;10093;48.148;8.542;2023-12-29T03:19:17;2.30;;;2.10;;
19861;SDS011;10093;48.148;8.542;2023-12-29T03:21:42;4.18;;;2.60;;
19861;SDS011;10093;48.148;8.542;2023-12-29T03:24:08;2.40;;;2.20;;
19861;SDS011;10093;48.148;8.542;2023-12-29T03:26:33;3.30;;;2.65;;
19861;SDS011;10093;48.148;8.542;2023-12-29T03:28:59;3.47;;;2.45;;
19861;SDS011;10093;48.148;8.542;2023-12-29T03:31:25;3.15;;;2.47;;
19861;SDS011;10093;48.148;8.542;2023-12-29T03:33:50;3.08;;;2.33;;
19861;SDS011;10093;48.148;8.542;2023-12-29T03:36:16;3.22;;;2.53;;
19861;SDS011;10093;48.148;8.542;2023-12-29T03:38:41;3.10;;;2.22;;
19861;SDS011;10093;48.148;8.542;2023-12-29T03:41:07;4.72;;;2.25;;
19861;SDS011;10093;48.148;8.542;2023-12-29T03:43:32;4.07;;;2.63;;
19861;SDS011;10093;48.148;8.542;2023-12-29T03:45:58;4.95;;;2.60;;
19861;SDS011;10093;48.148;8.542;2023-12-29T03:48:24;3.55;;;2.97;;
19861;SDS011;10093;48.148;8.542;2023-12-29T03:50:49;4.80;;;3.10;;
19861;SDS011;10093;48.148;8.542;2023-12-29T03:53:15;3.60;;;2.58;;
19861;SDS011;10093;48.148;8.542;2023-12-29T03:55:41;3.88;;;3.10;;
19861;SDS011;10093;48.148;8.542;2023-12-29T03:58:06;5.18;;;2.40;;
19861;SDS011;10093;48.148;8.542;2023-12-29T04:00:32;4.53;;;2.47;;
19861;SDS011;10093;48.148;8.542;2023-12-29T04:02:58;4.13;;;2.70;;
19861;SDS011;10093;48.148;8.542;2023-12-29T04:05:23;2.78;;;2.58;;
19861;SDS011;10093;48.148;8.542;2023-12-29T04:07:49;2.95;;;2.63;;
19861;SDS011;10093;48.148;8.542;2023-12-29T04:10:14;2.65;;;2.42;;
19861;SDS011;10093;48.148;8.542;2023-12-29T04:12:40;4.47;;;2.58;;
19861;SDS011;10093;48.148;8.542;2023-12-29T04:15:06;3.42;;;2.30;;
19861;SDS011;10093;48.148;8.542;2023-12-29T04:17:32;2.90;;;2.30;;
19861;SDS011;10093;48.148;8.542;2023-12-29T04:19:57;2.88;;;2.20;;
19861;SDS011;10093;48.148;8.542;2023-12-29T04:22:24;4.80;;;2.90;;
19861;SDS011;10093;48.148;8.542;2023-12-29T04:24:50;3.97;;;2.47;;
19861;SDS011;10093;48.148;8.542;2023-12-29T04:27:23;3.10;;;2.00;;
19861;SDS011;10093;48.148;8.542;2023-12-29T04:29:51;3.15;;;2.40;;
19861;SDS011;10093;48.148;8.542;2023-12-29T04:32:17;5.60;;;2.10;;
19861;SDS011;10093;48.148;8.542;2023-12-29T04:34:43;2.88;;;2.30;;
19861;SDS011;10093;48.148;8.542;2023-12-29T04:37:08;2.90;;;2.10;;
19861;SDS011;10093;48.148;8.542;2023-12-29T04:39:34;2.78;;;2.20;;
19861;SDS011;10093;48.148;8.542;2023-12-29T04:41:59;2.17;;;1.85;;
19861;SDS011;10093;48.148;8.542;2023-12-29T04:44:25;2.08;;;1.90;;
19861;SDS011;10093;48.148;8.542;2023-12-29T04:46:50;2.25;;;1.98;;
19861;SDS011;10093;48.148;8.542;2023-12-29T04:49:16;1.80;;;1.70;;
19861;SDS011;10093;48.148;8.542;2023-12-29T04:51:42;2.30;;;1.90;;
19861;SDS011;10093;48.148;8.542;2023-12-29T04:54:07;1.88;;;1.63;;
19861;SDS011;10093;48.148;8.542;2023-12-29T04:56:33;1.90;;;1.65;;
19861;SDS011;10093;48.148;8.542;2023-12-29T04:58:58;2.17;;;1.73;;
19861;SDS011;10093;48.148;8.542;2023-12-29T05:01:25;3.15;;;1.55;;
19861;SDS011;10093;48.148;8.542;2023-12-29T05:03:51;1.73;;;1.60;;
19861;SDS011;10093;48.148;8.542;2023-12-29T05:06:16;2.38;;;1.88;;
19861;SDS011;10093;48.148;8.542;2023-12-29T05:08:42;1.58;;;1.38;;
19861;SDS011;10093;48.148;8.542;2023-12-29T05:11:07;2.63;;;1.40;;
19861;SDS011;10093;48.148;8.542;2023-12-29T05:13:33;1.70;;;1.50;;
19861;SDS011;10093;48.148;8.542;2023-12-29T05:15:59;1.92;;;1.25;;
19861;SDS011;10093;48.148;8.542;2023-12-29T05:18:24;2.40;;;1.52;;
19861;SDS011;10093;48.148;8.542;2023-12-29T05:20:52;1.48;;;1.38;;
19861;SDS011;10093;48.148;8.542;2023-12-29T05:23:18;3.90;;;1.35;;
19861;SDS011;10093;48.148;8.542;2023-12-29T05:25:44;1.33;;;1.23;;
19861;SDS011;10093;48.148;8.542;2023-12-29T05:28:09;1.83;;;1.65;;
19861;SDS011;10093;48.148;8.542;2023-12-29T05:30:35;1.90;;;1.40;;
19861;SDS011;10093;48.148;8.542;2023-12-29T05:33:00;1.65;;;1.20;;
19861;SDS011;10093;48.148;8.542;2023-12-29T05:35:26;1.75;;;1.35;;
19861;SDS011;10093;48.148;8.542;2023-12-29T05:37:51;1.50;;;1.40;;
19861;SDS011;10093;48.148;8.542;2023-12-29T05:40:17;3.15;;;1.45;;
19861;SDS011;10093;48.148;8.542;2023-12-29T05:42:43;2.88;;;1.38;;
19861;SDS011;10093;48.148;8.542;2023-12-29T05:45:08;2.03;;;1.40;;
19861;SDS011;10093;48.148;8.542;2023-12-29T05:47:34;1.55;;;0.98;;
19861;SDS011;10093;48.148;8.542;2023-12-29T05:50:00;1.85;;;1.10;;
19861;SDS011;10093;48.148;8.542;2023-12-29T05:52:25;3.90;;;1.20;;
19861;SDS011;10093;48.148;8.542;2023-12-29T05:54:51;1.35;;;1.10;;
19861;SDS011;10093;48.148;8.542;2023-12-29T05:57:16;1.35;;;1.25;;
19861;SDS011;10093;48.148;8.542;2023-12-29T05:59:42;2.92;;;1.30;;
19861;SDS011;10093;48.148;8.542;2023-12-29T06:02:08;1.20;;;1.10;;
19861;SDS011;10093;48.148;8.542;2023-12-29T06:04:33;1.20;;;1.00;;
19861;SDS011;10093;48.148;8.542;2023-12-29T06:06:59;3.63;;;1.00;;
19861;SDS011;10093;48.148;8.542;2023-12-29T06:09:25;1.40;;;0.98;;
19861;SDS011;10093;48.148;8.542;2023-12-29T06:11:50;0.82;;;0.70;;
19861;SDS011;10093;48.148;8.542;2023-12-29T06:14:16;0.98;;;0.80;;
19861;SDS011;10093;48.148;8.542;2023-12-29T06:16:42;0.80;;;0.73;;
19861;SDS011;10093;48.148;8.542;2023-12-29T06:19:08;2.97;;;0.90;;
19861;SDS011;10093;48.148;8.542;2023-12-29T06:21:40;1.00;;;1.00;;
19861;SDS011;10093;48.148;8.542;2023-12-29T06:24:06;2.58;;;0.90;;
19861;SDS011;10093;48.148;8.542;2023-12-29T06:26:32;0.80;;;0.80;;
19861;SDS011;10093;48.148;8.542;2023-12-29T06:28:58;0.73;;;0.73;;
19861;SDS011;10093;48.148;8.542;2023-12-29T06:31:23;0.80;;;0.80;;
19861;SDS011;10093;48.148;8.542;2023-12-29T06:33:49;0.68;;;0.68;;
19861;SDS011;10093;48.148;8.542;2023-12-29T06:36:15;1.38;;;0.70;;
19861;SDS011;10093;48.148;8.542;2023-12-29T06:38:41;1.60;;;0.80;;
19861;SDS011;10093;48.148;8.542;2023-12-29T06:41:10;0.93;;;0.70;;
19861;SDS011;10093;48.148;8.542;2023-12-29T06:43:37;0.70;;;0.65;;
19861;SDS011;10093;48.148;8.542;2023-12-29T06:46:03;2.38;;;0.80;;
19861;SDS011;10093;48.148;8.542;2023-12-29T06:48:29;1.60;;;0.90;;
19861;SDS011;10093;48.148;8.542;2023-12-29T06:50:55;0.63;;;0.60;;
19861;SDS011;10093;48.148;8.542;2023-12-29T06:53:20;0.90;;;0.80;;
19861;SDS011;10093;48.148;8.542;2023-12-29T06:55:46;0.80;;;0.60;;
19861;SDS011;10093;48.148;8.542;2023-12-29T06:58:12;0.68;;;0.68;;
19861;SDS011;10093;48.148;8.542;2023-12-29T07:00:38;1.20;;;0.93;;
19861;SDS011;10093;48.148;8.542;2023-12-29T07:03:03;0.70;;;0.70;;
19861;SDS011;10093;48.148;8.542;2023-12-29T07:05:29;2.15;;;0.90;;
19861;SDS011;10093;48.148;8.542;2023-12-29T07:07:55;4.07;;;1.00;;
19861;SDS011;10093;48.148;8.542;2023-12-29T07:10:20;3.60;;;0.80;;
19861;SDS011;10093;48.148;8.542;2023-12-29T07:12:46;2.35;;;0.80;;
19861;SDS011;10093;48.148;8.542;2023-12-29T07:15:11;1.52;;;0.70;;
19861;SDS011;10093;48.148;8.542;2023-12-29T07:17:39;1.00;;;1.00;;
19861;SDS011;10093;48.148;8.542;2023-12-29T07:20:05;1.00;;;0.90;;
19861;SDS011;10093;48.148;8.542;2023-12-29T07:22:31;2.47;;;0.70;;
19861;SDS011;10093;48.148;8.542;2023-12-29T07:24:58;0.80;;;0.80;;
19861;SDS011;10093;48.148;8.542;2023-12-29T07:27:23;0.95;;;0.60;;
19861;SDS011;10093;48.148;8.542;2023-12-29T07:29:49;0.43;;;0.43;;
19861;SDS011;10093;48.148;8.542;2023-12-29T07:32:15;0.60;;;0.52;;
19861;SDS011;10093;48.148;8.542;2023-12-29T07:34:40;0.90;;;0.40;;
19861;SDS011;10093;48.148;8.542;2023-12-29T07:37:06;1.85;;;0.90;;
19861;SDS011;10093;48.148;8.542;2023-12-29T07:39:39;1.10;;;0.98;;
19861;SDS011;10093;48.148;8.542;2023-12-29T07:42:08;1.23;;;1.13;;
19861;SDS011;10093;48.148;8.542;2023-12-29T07:44:34;1.42;;;0.90;;
19861;SDS011;10093;48.148;8.542;2023-12-29T07:46:59;3.67;;;1.00;;
19861;SDS011;10093;48.148;8.542;2023-12-29T07:49:25;1.33;;;1.08;;
19861;SDS011;10093;48.148;8.542;2023-12-29T07:51:51;0.93;;;0.85;;
19861;SDS011;10093;48.148;8.542;2023-12-29T07:54:17;1.17;;;1.00;;
19861;SDS011;10093;48.148;8.542;2023-12-29T07:56:42;1.15;;;1.05;;
19861;SDS011;10093;48.148;8.542;2023-12-29T07:59:08;1.42;;;1.33;;
19861;SDS011;10093;48.148;8.542;2023-12-29T08:01:33;1.88;;;1.17;;
19861;SDS011;10093;48.148;8.542;2023-12-29T08:04:01;1.38;;;1.20;;
19861;SDS011;10093;48.148;8.542;2023-12-29T08:06:27;1.33;;;1.08;;
19861;SDS011;10093;48.148;8.542;2023-12-29T08:08:53;0.93;;;0.77;;
19861;SDS011;10093;48.148;8.542;2023-12-29T08:11:19;1.17;;;0.98;;
19861;SDS011;10093;48.148;8.542;2023-12-29T08:13:46;0.88;;;0.85;;
19861;SDS011;10093;48.148;8.542;2023-12-29T08:16:13;1.20;;;0.75;;
19861;SDS011;10093;48.148;8.542;2023-12-29T08:18:38;0.55;;;0.55;;
19861;SDS011;10093;48.148;8.542;2023-12-29T08:21:04;2.13;;;0.90;;
19861;SDS011;10093;48.148;8.542;2023-12-29T08:23:30;0.80;;;0.80;;
19861;SDS011;10093;48.148;8.542;2023-12-29T08:25:56;1.35;;;0.90;;
19861;SDS011;10093;48.148;8.542;2023-12-29T08:28:23;0.77;;;0.70;;
19861;SDS011;10093;48.148;8.542;2023-12-29T08:30:49;1.20;;;0.85;;
19861;SDS011;10093;48.148;8.542;2023-12-29T08:33:14;0.77;;;0.77;;
19861;SDS011;10093;48.148;8.542;2023-12-29T08:35:40;2.70;;;1.00;;
19861;SDS011;10093;48.148;8.542;2023-12-29T08:38:06;1.48;;;0.70;;
19861;SDS011;10093;48.148;8.542;2023-12-29T08:40:32;0.88;;;0.63;;
19861;SDS011;10093;48.148;8.542;2023-12-29T08:42:57;1.95;;;0.75;;
19861;SDS011;10093;48.148;8.542;2023-12-29T08:45:23;2.65;;;2.42;;
19861;SDS011;10093;48.148;8.542;2023-12-29T08:47:49;3.63;;;3.25;;
19861;SDS011;10093;48.148;8.542;2023-12-29T08:50:14;5.35;;;3.70;;
19861;SDS011;10093;48.148;8.542;2023-12-29T08:52:40;3.58;;;2.45;;
19861;SDS011;10093;48.148;8.542;2023-12-29T08:55:06;3.38;;;2.83;;
19861;SDS011;10093;48.148;8.542;2023-12-29T08:57:33;3.97;;;2.78;;
19861;SDS011;10093;48.148;8.542;2023-12-29T08:59:59;5.05;;;2.53;;
19861;SDS011;10093;48.148;8.542;2023-12-29T09:02:24;3.30;;;2.78;;
19861;SDS011;10093;48.148;8.542;2023-12-29T09:04:50;3.60;;;2.40;;
19861;SDS011;10093;48.148;8.542;2023-12-29T09:07:16;2.95;;;1.90;;
19861;SDS011;10093;48.148;8.542;2023-12-29T09:09:41;3.75;;;1.63;;
19861;SDS011;10093;48.148;8.542;2023-12-29T09:12:07;1.48;;;1.00;;
19861;SDS011;10093;48.148;8.542;2023-12-29T09:14:33;0.70;;;0.70;;
19861;SDS011;10093;48.148;8.542;2023-12-29T09:16:59;1.08;;;0.57;;
19861;SDS011;10093;48.148;8.542;2023-12-29T09:19:25;0.60;;;0.40;;
19861;SDS011;10093;48.148;8.542;2023-12-29T09:21:51;0.52;;;0.40;;
19861;SDS011;10093;48.148;8.542;2023-12-29T09:24:17;0.60;;;0.40;;
19861;SDS011;10093;48.148;8.542;2023-12-29T09:26:42;0.65;;;0.40;;
19861;SDS011;10093;48.148;8.542;2023-12-29T09:29:08;0.38;;;0.30;;
19861;SDS011;10093;48.148;8.542;2023-12-29T09:31:34;0.30;;;0.30;;
19861;SDS011;10093;48.148;8.542;2023-12-29T09:34:00;0.30;;;0.30;;
19861;SDS011;10093;48.148;8.542;2023-12-29T09:36:26;0.28;;;0.28;;
19861;SDS011;10093;48.148;8.542;2023-12-29T09:38:52;0.75;;;0.28;;
19861;SDS011;10093;48.148;8.542;2023-12-29T09:41:17;0.20;;;0.20;;
19861;SDS011;10093;48.148;8.542;2023-12-29T09:43:48;0.88;;;0.28;;
19861;SDS011;10093;48.148;8.542;2023-12-29T09:46:16;0.30;;;0.30;;
19861;SDS011;10093;48.148;8.542;2023-12-29T09:48:45;0.20;;;0.20;;
19861;SDS011;10093;48.148;8.542;2023-12-29T09:51:11;0.38;;;0.32;;
19861;SDS011;10093;48.148;8.542;2023-12-29T09:53:37;0.20;;;0.20;;
19861;SDS011;10093;48.148;8.542;2023-12-29T09:56:04;0.70;;;0.20;;
19861;SDS011;10093;48.148;8.542;2023-12-29T09:58:32;2.50;;;0.30;;
19861;SDS011;10093;48.148;8.542;2023-12-29T10:01:00;0.45;;;0.20;;
19861;SDS011;10093;48.148;8.542;2023-12-29T10:03:28;0.30;;;0.30;;
19861;SDS011;10093;48.148;8.542;2023-12-29T10:05:54;0.20;;;0.20;;
19861;SDS011;10093;48.148;8.542;2023-12-29T10:08:24;0.30;;;0.30;;
19861;SDS011;10093;48.148;8.542;2023-12-29T10:10:53;0.57;;;0.30;;
19861;SDS011;10093;48.148;8.542;2023-12-29T10:13:22;1.40;;;0.25;;
19861;SDS011;10093;48.148;8.542;2023-12-29T10:16:52;0.90;;;0.40;;
19861;SDS011;10093;48.148;8.542;2023-12-29T10:21:27;16.92;;;10.50;;
19861;SDS011;10093;48.148;8.542;2023-12-29T10:24:20;1.15;;;1.08;;
19861;SDS011;10093;48.148;8.542;2023-12-29T10:26:47;0.70;;;0.35;;
19861;SDS011;10093;48.148;8.542;2023-12-29T10:29:14;1.65;;;0.35;;
19861;SDS011;10093;48.148;8.542;2023-12-29T10:31:40;0.35;;;0.35;;
19861;SDS011;10093;48.148;8.542;2023-12-29T10:34:19;0.45;;;0.30;;
19861;SDS011;10093;48.148;8.542;2023-12-29T10:36:47;0.40;;;0.40;;
19861;SDS011;10093;48.148;8.542;2023-12-29T10:39:14;0.30;;;0.30;;
19861;SDS011;10093;48.148;8.542;2023-12-29T10:41:40;2.15;;;1.35;;
19861;SDS011;10093;48.148;8.542;2023-12-29T10:44:06;0.22;;;0.22;;
19861;SDS011;10093;48.148;8.542;2023-12-29T10:46:32;0.20;;;0.20;;
19861;SDS011;10093;48.148;8.542;2023-12-29T10:49:11;0.22;;;0.22;;
19861;SDS011;10093;48.148;8.542;2023-12-29T10:51:38;0.20;;;0.20;;
19861;SDS011;10093;48.148;8.542;2023-12-29T10:54:04;0.45;;;0.35;;
19861;SDS011;10093;48.148;8.542;2023-12-29T10:56:31;2.65;;;0.30;;
19861;SDS011;10093;48.148;8.542;2023-12-29T10:58:57;0.50;;;0.35;;
19861;SDS011;10093;48.148;8.542;2023-12-29T11:01:28;0.77;;;0.20;;
19861;SDS011;10093;48.148;8.542;2023-12-29T11:03:58;1.15;;;0.20;;
19861;SDS011;10093;48.148;8.542;2023-12-29T11:06:25;0.30;;;0.28;;
19861;SDS011;10093;48.148;8.542;2023-12-29T11:08:52;0.20;;;0.20;;
19861;SDS011;10093;48.148;8.542;2023-12-29T11:11:18;0.35;;;0.30;;
19861;SDS011;10093;48.148;8.542;2023-12-29T11:13:45;0.45;;;0.40;;
19861;SDS011;10093;48.148;8.542;2023-12-29T11:16:12;0.50;;;0.50;;
19861;SDS011;10093;48.148;8.542;2023-12-29T11:18:38;0.47;;;0.30;;
19861;SDS011;10093;48.148;8.542;2023-12-29T11:21:05;0.75;;;0.30;;
19861;SDS011;10093;48.148;8.542;2023-12-29T11:23:31;0.30;;;0.30;;
19861;SDS011;10093;48.148;8.542;2023-12-29T11:25:57;7.38;;;1.75;;
19861;SDS011;10093;48.148;8.542;2023-12-29T11:28:24;1.33;;;1.00;;
19861;SDS011;10093;48.148;8.542;2023-12-29T11:30:50;1.73;;;0.38;;
19861;SDS011;10093;48.148;8.542;2023-12-29T11:43:38;0.40;;;0.40;;
19861;SDS011;10093;48.148;8.542;2023-12-29T11:46:03;0.50;;;0.38;;
19861;SDS011;10093;48.148;8.542;2023-12-29T11:53:55;0.52;;;0.30;;
19861;SDS011;10093;48.148;8.542;2023-12-29T11:56:21;0.60;;;0.32;;
19861;SDS011;10093;48.148;8.542;2023-12-29T11:58:47;1.60;;;0.30;;
19861;SDS011;10093;48.148;8.542;2023-12-29T12:01:12;0.38;;;0.30;;
19861;SDS011;10093;48.148;8.542;2023-12-29T12:03:39;0.93;;;0.35;;
19861;SDS011;10093;48.148;8.542;2023-12-29T12:06:04;2.05;;;0.30;;
19861;SDS011;10093;48.148;8.542;2023-12-29T12:10:56;0.40;;;0.40;;
19861;SDS011;10093;48.148;8.542;2023-12-29T12:13:55;0.47;;;0.30;;
19861;SDS011;10093;48.148;8.542;2023-12-29T12:19:11;0.57;;;0.30;;
19861;SDS011;10093;48.148;8.542;2023-12-29T12:21:37;0.90;;;0.25;;
19861;SDS011;10093;48.148;8.542;2023-12-29T12:24:03;0.50;;;0.30;;
19861;SDS011;10093;48.148;8.542;2023-12-29T12:26:30;1.02;;;0.22;;
19861;SDS011;10093;48.148;8.542;2023-12-29T12:28:56;0.45;;;0.30;;
19861;SDS011;10093;48.148;8.542;2023-12-29T12:31:22;0.75;;;0.30;;
19861;SDS011;10093;48.148;8.542;2023-12-29T12:33:54;0.80;;;0.30;;
19861;SDS011;10093;48.148;8.542;2023-12-29T12:36:21;1.02;;;0.30;;
19861;SDS011;10093;48.148;8.542;2023-12-29T12:38:55;1.52;;;0.30;;
19861;SDS011;10093;48.148;8.542;2023-12-29T12:41:22;0.30;;;0.30;;
19861;SDS011;10093;48.148;8.542;2023-12-29T12:49:14;2.45;;;0.30;;
19861;SDS011;10093;48.148;8.542;2023-12-29T12:51:41;0.45;;;0.28;;
19861;SDS011;10093;48.148;8.542;2023-12-29T12:54:07;0.50;;;0.40;;
19861;SDS011;10093;48.148;8.542;2023-12-29T12:56:33;0.65;;;0.35;;
19861;SDS011;10093;48.148;8.542;2023-12-29T12:59:03;1.40;;;0.22;;
19861;SDS011;10093;48.148;8.542;2023-12-29T13:01:29;2.30;;;0.40;;
19861;SDS011;10093;48.148;8.542;2023-12-29T13:03:59;0.82;;;0.40;;
19861;SDS011;10093;48.148;8.542;2023-12-29T13:06:25;0.47;;;0.30;;
19861;SDS011;10093;48.148;8.542;2023-12-29T13:08:51;0.38;;;0.30;;
19861;SDS011;10093;48.148;8.542;2023-12-29T13:11:19;0.47;;;0.30;;
19861;SDS011;10093;48.148;8.542;2023-12-29T13:13:50;0.50;;;0.30;;
19861;SDS011;10093;48.148;8.542;2023-12-29T13:16:31;2.38;;;0.38;;
19861;SDS011;10093;48.148;8.542;2023-12-29T13:19:12;0.40;;;0.30;;
19861;SDS011;10093;48.148;8.542;2023-12-29T13:21:42;0.45;;;0.38;;
19861;SDS011;10093;48.148;8.542;2023-12-29T13:24:10;0.80;;;0.30;;
19861;SDS011;10093;48.148;8.542;2023-12-29T13:26:35;0.40;;;0.30;;
19861;SDS011;10093;48.148;8.542;2023-12-29T13:29:02;0.30;;;0.30;;
19861;SDS011;10093;48.148;8.542;2023-12-29T13:31:28;2.53;;;1.35;;
19861;SDS011;10093;48.148;8.542;2023-12-29T13:33:59;0.57;;;0.50;;
19861;SDS011;10093;48.148;8.542;2023-12-29T13:36:50;0.60;;;0.40;;
19861;SDS011;10093;48.148;8.542;2023-12-29T13:41:56;1.10;;;0.30;;
19861;SDS011;10093;48.148;8.542;2023-12-29T13:44:24;1.80;;;1.20;;
19861;SDS011;10093;48.148;8.542;2023-12-29T13:46:51;1.17;;;0.30;;
19861;SDS011;10093;48.148;8.542;2023-12-29T13:49:18;0.50;;;0.45;;
19861;SDS011;10093;48.148;8.542;2023-12-29T13:51:44;1.75;;;1.30;;
19861;SDS011;10093;48.148;8.542;2023-12-29T13:54:09;0.70;;;0.40;;
19861;SDS011;10093;48.148;8.542;2023-12-29T13:56:36;0.43;;;0.30;;
19861;SDS011;10093;48.148;8.542;2023-12-29T13:59:02;0.47;;;0.20;;
19861;SDS011;10093;48.148;8.542;2023-12-29T14:01:35;1.40;;;0.65;;
19861;SDS011;10093;48.148;8.542;2023-12-29T14:04:02;1.85;;;1.10;;
19861;SDS011;10093;48.148;8.542;2023-12-29T14:07:16;1.30;;;1.00;;
19861;SDS011;10093;48.148;8.542;2023-12-29T14:09:20;2.72;;;1.10;;
19861;SDS011;10093;48.148;8.542;2023-12-29T14:11:46;1.88;;;1.25;;
19861;SDS011;10093;48.148;8.542;2023-12-29T14:14:13;0.70;;;0.50;;
19861;SDS011;10093;48.148;8.542;2023-12-29T14:16:39;1.58;;;0.50;;
19861;SDS011;10093;48.148;8.542;2023-12-29T14:19:05;2.90;;;1.08;;
19861;SDS011;10093;48.148;8.542;2023-12-29T14:21:32;0.68;;;0.32;;
19861;SDS011;10093;48.148;8.542;2023-12-29T14:24:11;1.02;;;0.40;;
19861;SDS011;10093;48.148;8.542;2023-12-29T14:29:06;0.40;;;0.38;;
19861;SDS011;10093;48.148;8.542;2023-12-29T14:31:34;0.75;;;0.30;;
19861;SDS011;10093;48.148;8.542;2023-12-29T14:34:05;0.43;;;0.43;;
19861;SDS011;10093;48.148;8.542;2023-12-29T14:36:32;0.75;;;0.40;;
19861;SDS011;10093;48.148;8.542;2023-12-29T14:38:58;2.47;;;0.40;;
19861;SDS011;10093;48.148;8.542;2023-12-29T14:41:24;0.40;;;0.40;;
19861;SDS011;10093;48.148;8.542;2023-12-29T14:43:50;0.88;;;0.45;;
19861;SDS011;10093;48.148;8.542;2023-12-29T14:46:16;1.02;;;0.52;;
19861;SDS011;10093;48.148;8.542;2023-12-29T14:48:42;1.63;;;0.43;;
19861;SDS011;10093;48.148;8.542;2023-12-29T14:51:08;0.93;;;0.50;;
19861;SDS011;10093;48.148;8.542;2023-12-29T14:53:33;0.85;;;0.40;;
19861;SDS011;10093;48.148;8.542;2023-12-29T14:55:59;0.50;;;0.40;;
19861;SDS011;10093;48.148;8.542;2023-12-29T14:58:25;1.15;;;0.40;;
19861;SDS011;10093;48.148;8.542;2023-12-29T15:00:51;0.50;;;0.30;;
19861;SDS011;10093;48.148;8.542;2023-12-29T15:03:16;0.85;;;0.40;;
19861;SDS011;10093;48.148;8.542;2023-12-29T15:05:43;2.15;;;1.00;;
19861;SDS011;10093;48.148;8.542;2023-12-29T15:08:09;0.60;;;0.40;;
19861;SDS011;10093;48.148;8.542;2023-12-29T15:10:35;1.88;;;0.50;;
19861;SDS011;10093;48.148;8.542;2023-12-29T15:13:01;1.42;;;1.33;;
19861;SDS011;10093;48.148;8.542;2023-12-29T15:15:27;1.25;;;1.13;;
19861;SDS011;10093;48.148;8.542;2023-12-29T15:17:52;2.92;;;1.35;;
19861;SDS011;10093;48.148;8.542;2023-12-29T15:20:18;0.70;;;0.57;;
19861;SDS011;10093;48.148;8.542;2023-12-29T15:22:43;1.77;;;0.85;;
19861;SDS011;10093;48.148;8.542;2023-12-29T15:25:10;1.48;;;0.95;;